createdAt,value
2023-05-14T00:00:36.041Z,4.20
2023-05-14T00:03:02.733Z,4.30
2023-05-14T00:05:29.255Z,4.22
2023-05-14T00:07:55.725Z,3.58
2023-05-14T00:10:22.748Z,4.28
2023-05-14T00:12:51.753Z,4.47
2023-05-14T00:15:18.472Z,4.20
2023-05-14T00:17:45.048Z,4.07
2023-05-14T00:20:12.249Z,4.25
2023-05-14T00:22:39.464Z,4.10
2023-05-14T00:25:07.021Z,3.95
2023-05-14T00:27:34.085Z,4.13
2023-05-14T00:30:00.575Z,4.53
2023-05-14T00:32:27.111Z,4.07
2023-05-14T00:34:53.572Z,3.88
2023-05-14T00:37:20.008Z,4.15
2023-05-14T00:39:46.550Z,4.72
2023-05-14T00:42:12.950Z,4.32
2023-05-14T00:44:39.339Z,4.55
2023-05-14T00:47:06.128Z,4.20
2023-05-14T00:49:32.705Z,4.10
2023-05-14T00:52:00.362Z,4.50
2023-05-14T00:54:27.276Z,4.63
2023-05-14T00:56:54.073Z,4.30
2023-05-14T00:59:20.571Z,4.57
2023-05-14T01:01:47.015Z,4.25
2023-05-14T01:04:13.642Z,4.65
2023-05-14T01:06:52.177Z,4.63
2023-05-14T01:09:24.359Z,4.75
2023-05-14T01:12:38.224Z,4.50
2023-05-14T01:15:23.628Z,4.28
2023-05-14T01:17:58.053Z,4.70
2023-05-14T01:20:25.979Z,5.22
2023-05-14T01:22:52.605Z,4.80
2023-05-14T01:25:19.027Z,4.53
2023-05-14T01:28:08.770Z,4.78
2023-05-14T01:30:42.009Z,4.75
2023-05-14T01:33:11.605Z,4.28
2023-05-14T01:35:38.059Z,4.22
2023-05-14T01:38:07.536Z,4.50
2023-05-14T01:40:36.254Z,4.80
2023-05-14T01:43:03.659Z,4.03
2023-05-14T01:45:30.748Z,4.00
2023-05-14T01:47:58.716Z,4.00
2023-05-14T01:50:25.593Z,4.68
2023-05-14T01:52:56.289Z,4.60
2023-05-14T01:55:26.484Z,4.68
2023-05-14T01:57:53.387Z,4.15
2023-05-14T02:00:20.927Z,4.20
2023-05-14T02:02:47.460Z,4.00
2023-05-14T02:05:14.037Z,4.60
2023-05-14T02:07:40.680Z,4.78
2023-05-14T02:10:07.866Z,4.70
2023-05-14T02:12:34.312Z,4.50
2023-05-14T02:15:00.816Z,4.63
2023-05-14T02:17:27.436Z,4.45
2023-05-14T02:19:53.888Z,4.05
2023-05-14T02:22:20.431Z,4.10
2023-05-14T02:24:46.956Z,3.78
2023-05-14T02:27:13.487Z,4.50
2023-05-14T02:29:39.927Z,3.72
2023-05-14T02:32:06.674Z,4.40
2023-05-14T02:34:34.474Z,4.80
2023-05-14T02:37:01.068Z,4.30
2023-05-14T02:39:27.468Z,4.28
2023-05-14T02:41:53.922Z,4.22
2023-05-14T02:44:20.419Z,4.72
2023-05-14T02:46:47.958Z,4.43
2023-05-14T02:49:14.355Z,4.28
2023-05-14T02:51:40.817Z,3.70
2023-05-14T02:54:07.337Z,4.53
2023-05-14T02:56:33.913Z,3.88
2023-05-14T02:59:00.535Z,4.10
2023-05-14T03:01:27.311Z,4.10
2023-05-14T03:03:54.238Z,4.32
2023-05-14T03:06:20.671Z,4.10
2023-05-14T03:08:47.160Z,4.15
2023-05-14T03:11:13.681Z,4.78
2023-05-14T03:13:40.161Z,4.18
2023-05-14T03:16:06.740Z,4.72
2023-05-14T03:18:34.788Z,4.53
2023-05-14T03:21:01.294Z,4.07
2023-05-14T03:23:27.967Z,4.53
2023-05-14T03:25:54.356Z,4.43
2023-05-14T03:28:20.798Z,4.68
2023-05-14T03:30:47.351Z,4.40
2023-05-14T03:33:13.807Z,4.40
2023-05-14T03:35:40.226Z,4.07
2023-05-14T03:38:07.508Z,3.90
2023-05-14T03:40:34.034Z,4.07
2023-05-14T03:43:00.723Z,4.20
2023-05-14T03:45:29.671Z,4.00
2023-05-14T03:47:56.273Z,4.30
2023-05-14T03:50:25.513Z,3.80
2023-05-14T03:52:52.646Z,4.03
2023-05-14T03:55:22.241Z,3.88
2023-05-14T03:57:48.708Z,4.35
2023-05-14T04:00:15.604Z,4.38
2023-05-14T04:02:42.772Z,4.35
2023-05-14T04:05:09.449Z,4.13
2023-05-14T04:07:35.820Z,4.22
2023-05-14T04:10:04.774Z,4.18
2023-05-14T04:12:31.360Z,4.22
2023-05-14T04:14:58.295Z,3.95
2023-05-14T04:17:24.842Z,3.85
2023-05-14T04:19:51.282Z,4.20
2023-05-14T04:22:17.661Z,3.88
2023-05-14T04:24:44.074Z,3.90
2023-05-14T04:27:10.651Z,4.28
2023-05-14T04:29:37.074Z,4.43
2023-05-14T04:32:04.237Z,4.57
2023-05-14T04:34:30.921Z,4.28
2023-05-14T04:36:57.430Z,4.85
2023-05-14T04:39:23.874Z,4.60
2023-05-14T04:41:50.266Z,4.20
2023-05-14T04:44:16.699Z,4.60
2023-05-14T04:46:43.071Z,4.32
2023-05-14T04:49:09.436Z,4.30
2023-05-14T04:51:35.867Z,4.50
2023-05-14T04:54:02.312Z,4.53
2023-05-14T04:56:28.797Z,6.88
2023-05-14T04:58:55.239Z,6.53
2023-05-14T05:01:23.438Z,6.22
2023-05-14T05:03:50.089Z,5.30
2023-05-14T05:06:16.649Z,5.03
2023-05-14T05:08:43.078Z,4.50
2023-05-14T05:11:09.521Z,4.53
2023-05-14T05:13:35.958Z,4.03
2023-05-14T05:16:02.387Z,4.13
2023-05-14T05:18:28.821Z,3.50
2023-05-14T05:20:56.060Z,3.55
2023-05-14T05:23:22.493Z,3.80
2023-05-14T05:25:49.497Z,4.03
2023-05-14T05:28:16.054Z,4.00
2023-05-14T05:30:44.954Z,4.10
2023-05-14T05:33:12.104Z,3.97
2023-05-14T05:35:38.470Z,4.60
2023-05-14T05:38:04.864Z,4.07
2023-05-14T05:40:31.265Z,4.25
2023-05-14T05:42:57.633Z,4.00
2023-05-14T05:45:24.033Z,4.88
2023-05-14T05:47:50.483Z,4.43
2023-05-14T05:50:18.894Z,4.97
2023-05-14T05:52:46.234Z,4.40
2023-05-14T05:55:12.600Z,4.28
2023-05-14T05:57:38.983Z,4.65
2023-05-14T06:00:15.238Z,5.40
2023-05-14T06:02:41.870Z,4.88
2023-05-14T06:05:09.706Z,4.70
2023-05-14T06:07:36.587Z,5.22
2023-05-14T06:10:03.315Z,4.55
2023-05-14T06:12:29.719Z,5.50
2023-05-14T06:14:57.756Z,5.45
2023-05-14T06:17:25.201Z,4.65
2023-05-14T06:19:51.944Z,6.10
2023-05-14T06:22:18.718Z,5.10
2023-05-14T06:24:45.117Z,5.25
2023-05-14T06:27:11.511Z,5.28
2023-05-14T06:29:38.447Z,5.40
2023-05-14T06:32:05.495Z,5.22
2023-05-14T06:34:32.021Z,5.45
2023-05-14T06:36:58.502Z,4.30
2023-05-14T06:39:24.990Z,4.95
2023-05-14T06:41:51.676Z,4.95
2023-05-14T06:44:19.383Z,4.75
2023-05-14T06:46:45.834Z,5.10
2023-05-14T06:49:12.369Z,5.13
2023-05-14T06:51:40.706Z,5.10
2023-05-14T06:54:07.150Z,4.18
2023-05-14T06:56:33.584Z,3.92
2023-05-14T06:58:59.940Z,4.35
2023-05-14T07:01:26.983Z,3.65
2023-05-14T07:03:53.480Z,3.40
2023-05-14T07:06:20.508Z,3.67
2023-05-14T07:08:46.950Z,4.82
2023-05-14T07:11:13.461Z,3.83
2023-05-14T07:13:40.677Z,3.80
2023-05-14T07:16:10.105Z,3.85
2023-05-14T07:18:36.559Z,3.78
2023-05-14T07:21:04.905Z,4.03
2023-05-14T07:23:31.302Z,3.75
2023-05-14T07:25:57.698Z,4.05
2023-05-14T07:28:24.138Z,3.90
2023-05-14T07:30:50.546Z,3.95
2023-05-14T07:33:16.992Z,3.95
2023-05-14T07:35:43.360Z,3.92
2023-05-14T07:38:09.769Z,3.83
2023-05-14T07:40:36.144Z,4.00
2023-05-14T07:43:02.575Z,3.63
2023-05-14T07:45:28.998Z,3.50
2023-05-14T07:47:55.527Z,3.65
2023-05-14T07:50:24.177Z,3.90
2023-05-14T07:52:50.799Z,3.28
2023-05-14T07:55:17.251Z,3.70
2023-05-14T07:57:43.628Z,4.30
2023-05-14T08:00:10.884Z,3.45
2023-05-14T08:02:37.394Z,3.85
2023-05-14T08:05:04.561Z,3.60
2023-05-14T08:07:31.058Z,3.42
2023-05-14T08:09:57.445Z,3.83
2023-05-14T08:12:23.915Z,3.55
2023-05-14T08:14:50.293Z,4.10
2023-05-14T08:17:16.762Z,3.42
2023-05-14T08:19:43.358Z,3.22
2023-05-14T08:22:09.736Z,3.88
2023-05-14T08:24:36.236Z,3.70
2023-05-14T08:27:02.732Z,3.72
2023-05-14T08:29:29.092Z,3.65
2023-05-14T08:31:55.537Z,3.88
2023-05-14T08:34:22.439Z,3.70
2023-05-14T08:36:48.884Z,3.50
2023-05-14T08:39:15.260Z,3.42
2023-05-14T08:41:41.701Z,4.22
2023-05-14T08:44:14.982Z,3.83
2023-05-14T08:46:41.760Z,3.58
2023-05-14T08:49:16.081Z,3.60
2023-05-14T08:51:44.323Z,3.70
2023-05-14T08:54:14.523Z,3.42
2023-05-14T08:56:42.208Z,3.38
2023-05-14T08:59:08.628Z,3.13
2023-05-14T09:01:35.755Z,3.00
2023-05-14T09:04:06.948Z,3.58
2023-05-14T09:06:34.673Z,3.17
2023-05-14T09:09:01.391Z,3.45
2023-05-14T09:11:27.789Z,2.88
2023-05-14T09:13:54.148Z,3.17
2023-05-14T09:16:20.734Z,3.72
2023-05-14T09:18:47.467Z,3.28
2023-05-14T09:21:15.146Z,3.67
2023-05-14T09:23:42.365Z,2.88
2023-05-14T09:26:08.760Z,3.30
2023-05-14T09:28:37.087Z,3.20
2023-05-14T09:31:03.864Z,3.00
2023-05-14T09:33:30.964Z,3.25
2023-05-14T09:36:00.729Z,2.97
2023-05-14T09:38:35.112Z,2.97
2023-05-14T09:41:01.583Z,3.17
2023-05-14T09:43:28.223Z,3.15
2023-05-14T09:45:54.631Z,2.78
2023-05-14T09:48:22.335Z,2.85
2023-05-14T09:50:48.846Z,2.50
2023-05-14T09:53:15.276Z,2.97
2023-05-14T09:55:41.860Z,3.15
2023-05-14T09:58:08.327Z,2.97
2023-05-14T10:00:35.354Z,3.00
2023-05-14T10:03:06.278Z,3.20
2023-05-14T10:05:36.810Z,2.22
2023-05-14T10:08:06.089Z,2.97
2023-05-14T10:10:33.098Z,2.67
2023-05-14T10:13:04.672Z,2.55
2023-05-14T10:15:37.647Z,2.90
2023-05-14T10:18:10.310Z,2.70
2023-05-14T10:20:38.104Z,2.53
2023-05-14T10:23:05.924Z,2.67
2023-05-14T10:25:32.408Z,2.47
2023-05-14T10:27:58.938Z,2.40
2023-05-14T10:30:25.884Z,2.60
2023-05-14T10:33:12.309Z,2.75
2023-05-14T10:35:52.035Z,2.30
2023-05-14T10:38:23.070Z,2.08
2023-05-14T10:40:50.706Z,2.17
2023-05-14T10:43:18.653Z,2.90
2023-05-14T10:45:45.946Z,2.35
2023-05-14T10:48:12.375Z,2.35
2023-05-14T10:50:38.774Z,2.55
2023-05-14T10:53:05.239Z,2.38
2023-05-14T10:55:31.655Z,2.70
2023-05-14T10:57:58.882Z,3.05
2023-05-14T11:00:25.965Z,2.50
2023-05-14T11:02:55.523Z,2.40
2023-05-14T11:05:21.910Z,2.40
2023-05-14T11:07:49.658Z,2.63
2023-05-14T11:10:18.098Z,2.97
2023-05-14T11:12:49.172Z,2.53
2023-05-14T11:15:20.954Z,2.80
2023-05-14T11:17:48.858Z,2.42
2023-05-14T11:20:16.648Z,2.85
2023-05-14T11:22:45.133Z,2.67
2023-05-14T11:25:14.676Z,2.60
2023-05-14T11:27:43.318Z,2.45
2023-05-14T11:30:13.895Z,2.60
2023-05-14T11:32:41.353Z,2.83
2023-05-14T11:35:08.393Z,2.40
2023-05-14T11:37:34.775Z,2.83
2023-05-14T11:40:01.584Z,2.25
2023-05-14T11:42:28.029Z,2.28
2023-05-14T11:44:54.498Z,2.30
2023-05-14T11:47:22.147Z,2.58
2023-05-14T11:49:49.001Z,2.55
2023-05-14T11:52:16.432Z,2.40
2023-05-14T11:54:43.951Z,2.50
2023-05-14T11:57:16.402Z,2.30
2023-05-14T11:59:43.257Z,2.17
2023-05-14T12:02:14.087Z,2.17
2023-05-14T12:04:42.097Z,1.90
2023-05-14T12:07:14.104Z,2.22
2023-05-14T12:09:45.148Z,2.50
2023-05-14T12:12:12.649Z,2.08
2023-05-14T12:14:42.761Z,2.13
2023-05-14T12:17:16.234Z,2.10
2023-05-14T12:19:43.538Z,1.73
2023-05-14T12:22:15.166Z,2.00
2023-05-14T12:24:43.364Z,2.05
2023-05-14T12:27:10.500Z,1.52
2023-05-14T12:29:38.770Z,2.17
2023-05-14T12:32:09.344Z,2.05
2023-05-14T12:34:37.705Z,1.67
2023-05-14T12:37:04.945Z,2.22
2023-05-14T12:39:33.755Z,2.00
2023-05-14T12:42:00.428Z,1.80
2023-05-14T12:44:26.917Z,1.77
2023-05-14T12:46:53.422Z,1.60
2023-05-14T12:49:19.903Z,1.58
2023-05-14T12:51:46.906Z,1.85
2023-05-14T12:54:13.642Z,1.95
2023-05-14T12:56:40.150Z,1.80
2023-05-14T12:59:06.516Z,1.95
2023-05-14T13:01:32.999Z,1.88
2023-05-14T13:03:59.863Z,1.98
2023-05-14T13:06:26.364Z,1.73
2023-05-14T13:08:52.758Z,1.90
2023-05-14T13:11:19.166Z,1.67
2023-05-14T13:13:45.582Z,1.80
2023-05-14T13:16:16.605Z,1.92
2023-05-14T13:18:43.046Z,1.65
2023-05-14T13:21:09.460Z,1.90
2023-05-14T13:23:35.913Z,1.58
2023-05-14T13:26:02.340Z,1.75
2023-05-14T13:28:28.796Z,1.65
2023-05-14T13:31:09.650Z,1.70
2023-05-14T13:33:37.303Z,1.80
2023-05-14T13:36:04.188Z,1.77
2023-05-14T13:38:30.904Z,1.75
2023-05-14T13:41:01.644Z,1.90
2023-05-14T13:43:31.795Z,1.65
2023-05-14T13:45:58.353Z,1.48
2023-05-14T13:48:25.375Z,1.45
2023-05-14T13:50:52.173Z,1.60
2023-05-14T13:53:22.939Z,1.40
2023-05-14T13:55:49.553Z,1.83
2023-05-14T13:58:16.443Z,1.75
2023-05-14T14:00:43.005Z,1.75
2023-05-14T14:03:09.520Z,1.65
2023-05-14T14:05:36.215Z,1.67
2023-05-14T14:08:17.909Z,1.77
2023-05-14T14:10:49.151Z,1.67
2023-05-14T14:13:15.671Z,1.70
2023-05-14T14:15:42.596Z,1.85
2023-05-14T14:18:09.021Z,2.00
2023-05-14T14:20:36.173Z,1.73
2023-05-14T14:23:02.645Z,1.80
2023-05-14T14:25:29.107Z,1.90
2023-05-14T14:27:55.624Z,1.50
2023-05-14T14:30:21.962Z,1.75
2023-05-14T14:32:49.403Z,2.15
2023-05-14T14:35:19.280Z,2.00
2023-05-14T14:37:49.128Z,2.30
2023-05-14T14:40:16.742Z,1.73
2023-05-14T14:42:43.599Z,1.83
2023-05-14T14:45:10.684Z,1.50
2023-05-14T14:47:37.128Z,1.80
2023-05-14T14:50:03.693Z,1.50
2023-05-14T14:52:30.317Z,1.48
2023-05-14T14:54:56.895Z,1.65
2023-05-14T14:57:23.278Z,1.27
2023-05-14T14:59:49.751Z,1.35
2023-05-14T15:02:16.442Z,1.35
2023-05-14T15:04:43.191Z,1.60
2023-05-14T15:07:09.632Z,1.60
2023-05-14T15:09:36.096Z,1.25
2023-05-14T15:12:02.588Z,1.42
2023-05-14T15:14:29.040Z,1.95
2023-05-14T15:16:55.636Z,1.40
2023-05-14T15:19:22.134Z,1.73
2023-05-14T15:21:48.643Z,1.70
2023-05-14T15:24:15.124Z,1.75
2023-05-14T15:26:41.754Z,1.50
2023-05-14T15:29:08.513Z,1.30
2023-05-14T15:31:35.057Z,1.92
2023-05-14T15:34:01.589Z,1.35
2023-05-14T15:36:28.510Z,1.42
2023-05-14T15:38:54.918Z,1.48
2023-05-14T15:41:21.414Z,3.28
2023-05-14T15:43:47.814Z,3.75
2023-05-14T15:46:14.252Z,2.13
2023-05-14T15:48:40.731Z,2.05
2023-05-14T15:51:07.676Z,1.60
2023-05-14T15:53:34.078Z,2.03
2023-05-14T15:56:00.416Z,1.98
2023-05-14T15:58:28.217Z,1.52
2023-05-14T16:00:54.552Z,1.90
2023-05-14T16:03:21.091Z,1.80
2023-05-14T16:05:48.470Z,1.67
2023-05-14T16:08:14.836Z,1.40
2023-05-14T16:10:41.170Z,1.30
2023-05-14T16:13:07.525Z,1.50
2023-05-14T16:15:33.885Z,1.50
2023-05-14T16:18:00.464Z,1.30
2023-05-14T16:20:26.885Z,1.25
2023-05-14T16:22:53.323Z,1.48
2023-05-14T16:25:19.709Z,1.40
2023-05-14T16:27:46.169Z,1.40
2023-05-14T16:30:12.798Z,1.00
2023-05-14T16:32:40.431Z,1.20
2023-05-14T16:35:07.064Z,1.52
2023-05-14T16:37:33.428Z,1.52
2023-05-14T16:39:59.840Z,1.23
2023-05-14T16:42:26.406Z,1.50
2023-05-14T16:44:52.801Z,1.60
2023-05-14T16:47:19.196Z,1.60
2023-05-14T16:49:45.576Z,1.48
2023-05-14T16:52:11.964Z,1.73
2023-05-14T16:54:40.242Z,1.30
2023-05-14T16:57:06.677Z,1.75
2023-05-14T16:59:33.073Z,1.75
2023-05-14T17:01:59.600Z,1.80
2023-05-14T17:04:26.602Z,1.98
2023-05-14T17:06:53.586Z,1.65
2023-05-14T17:09:20.019Z,1.40
2023-05-14T17:11:46.467Z,1.45
2023-05-14T17:14:12.911Z,1.50
2023-05-14T17:16:40.518Z,1.75
2023-05-14T17:19:06.945Z,1.48
2023-05-14T17:21:33.319Z,2.08
2023-05-14T17:23:59.693Z,1.73
2023-05-14T17:26:26.313Z,2.20
2023-05-14T17:28:52.694Z,2.30
2023-05-14T17:31:19.139Z,2.00
2023-05-14T17:33:45.544Z,1.77
2023-05-14T17:36:11.907Z,1.85
2023-05-14T17:38:39.072Z,1.67
2023-05-14T17:41:06.295Z,1.33
2023-05-14T17:43:32.718Z,1.48
2023-05-14T17:45:59.282Z,2.22
2023-05-14T17:48:25.648Z,1.45
2023-05-14T17:50:52.119Z,1.42
2023-05-14T17:53:20.602Z,2.33
2023-05-14T17:55:47.130Z,16.70
2023-05-14T17:58:15.368Z,21.88
2023-05-14T18:00:42.313Z,59.80
2023-05-14T18:03:08.929Z,18.73
2023-05-14T18:05:35.479Z,11.70
2023-05-14T18:08:01.944Z,17.92
2023-05-14T18:10:29.540Z,32.03
2023-05-14T18:12:56.425Z,9.07
2023-05-14T18:15:25.463Z,2.50
2023-05-14T18:17:52.480Z,2.10
2023-05-14T18:20:19.110Z,2.25
2023-05-14T18:22:45.827Z,1.92
2023-05-14T18:25:12.877Z,1.40
2023-05-14T18:27:44.228Z,1.30
2023-05-14T18:30:12.461Z,1.60
2023-05-14T18:32:39.316Z,2.47
2023-05-14T18:35:08.068Z,1.90
2023-05-14T18:37:35.146Z,4.75
2023-05-14T18:40:02.384Z,3.70
2023-05-14T18:42:28.800Z,1.90
2023-05-14T18:44:55.402Z,2.63
2023-05-14T18:47:21.896Z,2.13
2023-05-14T18:49:50.231Z,1.60
2023-05-14T18:52:16.592Z,1.58
2023-05-14T18:54:43.152Z,1.60
2023-05-14T18:57:09.553Z,1.60
2023-05-14T18:59:35.933Z,1.42
2023-05-14T19:02:02.427Z,1.50
2023-05-14T19:04:29.734Z,1.50
2023-05-14T19:06:59.526Z,1.60
2023-05-14T19:09:26.957Z,1.80
2023-05-14T19:11:53.460Z,1.52
2023-05-14T19:14:21.391Z,1.45
2023-05-14T19:16:47.807Z,1.58
2023-05-14T19:19:14.263Z,1.30
2023-05-14T19:21:40.704Z,3.13
2023-05-14T19:24:07.231Z,1.85
2023-05-14T19:26:33.607Z,1.60
2023-05-14T19:29:00.517Z,1.50
2023-05-14T19:31:27.563Z,1.95
2023-05-14T19:33:54.561Z,1.73
2023-05-14T19:36:21.153Z,2.40
2023-05-14T19:38:49.332Z,2.47
2023-05-14T19:41:15.697Z,2.20
2023-05-14T19:43:42.193Z,2.45
2023-05-14T19:46:08.629Z,1.90
2023-05-14T19:48:35.020Z,1.90
2023-05-14T19:51:01.448Z,1.67
2023-05-14T19:53:30.815Z,1.95
2023-05-14T19:55:57.485Z,3.38
2023-05-14T19:58:24.025Z,1.95
2023-05-14T20:00:54.331Z,1.95
2023-05-14T20:03:27.393Z,2.20
2023-05-14T20:05:54.917Z,2.63
2023-05-14T20:08:21.579Z,1.95
2023-05-14T20:10:48.630Z,2.33
2023-05-14T20:13:15.219Z,1.92
2023-05-14T20:15:41.871Z,2.25
2023-05-14T20:18:08.397Z,1.90
2023-05-14T20:20:34.876Z,1.77
2023-05-14T20:23:01.317Z,2.65
2023-05-14T20:25:28.741Z,2.05
2023-05-14T20:27:55.395Z,2.42
2023-05-14T20:30:21.859Z,2.03
2023-05-14T20:32:48.328Z,2.10
2023-05-14T20:35:14.839Z,2.15
2023-05-14T20:37:41.250Z,2.28
2023-05-14T20:40:12.441Z,1.92
2023-05-14T20:42:39.137Z,3.08
2023-05-14T20:45:06.590Z,2.40
2023-05-14T20:47:34.083Z,4.80
2023-05-14T20:50:00.855Z,2.85
2023-05-14T20:52:27.273Z,2.50
2023-05-14T20:54:53.679Z,2.33
2023-05-14T20:57:20.137Z,2.00
2023-05-14T20:59:48.374Z,2.38
2023-05-14T21:02:14.915Z,1.98
2023-05-14T21:04:41.516Z,2.10
2023-05-14T21:07:08.009Z,2.20
2023-05-14T21:09:34.421Z,2.17
2023-05-14T21:12:00.917Z,2.10
2023-05-14T21:14:27.389Z,2.08
2023-05-14T21:16:53.843Z,2.03
2023-05-14T21:19:20.505Z,2.38
2023-05-14T21:21:47.397Z,2.10
2023-05-14T21:24:14.013Z,2.42
2023-05-14T21:26:41.322Z,2.20
2023-05-14T21:29:07.810Z,2.10
2023-05-14T21:31:34.585Z,2.28
2023-05-14T21:34:01.074Z,2.50
2023-05-14T21:36:27.691Z,2.08
2023-05-14T21:38:54.121Z,2.70
2023-05-14T21:41:21.618Z,2.38
2023-05-14T21:43:49.469Z,2.42
2023-05-14T21:46:16.372Z,2.35
2023-05-14T21:48:42.994Z,2.28
2023-05-14T21:51:09.521Z,2.40
2023-05-14T21:53:36.020Z,2.15
2023-05-14T21:56:02.445Z,2.50
2023-05-14T21:58:28.875Z,2.00
2023-05-14T22:00:55.329Z,2.22
2023-05-14T22:03:21.861Z,2.10
2023-05-14T22:05:49.204Z,2.40
2023-05-14T22:08:17.539Z,2.30
2023-05-14T22:10:44.399Z,2.25
2023-05-14T22:13:11.059Z,2.17
2023-05-14T22:15:37.869Z,2.25
2023-05-14T22:18:04.963Z,2.10
2023-05-14T22:20:31.400Z,2.42
2023-05-14T22:22:57.987Z,2.40
2023-05-14T22:25:24.572Z,2.33
2023-05-14T22:27:51.231Z,2.30
2023-05-14T22:30:17.674Z,2.42
2023-05-14T22:32:44.250Z,2.20
2023-05-14T22:35:11.207Z,2.72
2023-05-14T22:37:37.633Z,2.28
2023-05-14T22:40:05.259Z,2.60
2023-05-14T22:42:31.646Z,2.30
2023-05-14T22:44:57.997Z,2.30
2023-05-14T22:47:25.311Z,2.58
2023-05-14T22:49:51.984Z,2.38
2023-05-14T22:52:18.900Z,2.42
2023-05-14T22:54:46.605Z,2.50
2023-05-14T22:57:13.158Z,2.95
2023-05-14T22:59:39.798Z,3.08
2023-05-14T23:02:06.839Z,2.30
2023-05-14T23:04:33.422Z,2.50
2023-05-14T23:06:59.896Z,2.40
2023-05-14T23:09:26.336Z,2.50
2023-05-14T23:11:52.736Z,2.80
2023-05-14T23:14:19.628Z,2.80
2023-05-14T23:16:46.082Z,2.90
2023-05-14T23:19:12.786Z,2.58
2023-05-14T23:21:39.388Z,2.65
2023-05-14T23:24:06.227Z,2.70
2023-05-14T23:26:32.703Z,2.97
2023-05-14T23:28:59.105Z,2.75
2023-05-14T23:31:25.563Z,2.22
2023-05-14T23:33:51.978Z,3.22
2023-05-14T23:36:18.416Z,2.90
2023-05-14T23:38:45.064Z,2.92
2023-05-14T23:41:11.488Z,2.67
2023-05-14T23:43:37.930Z,2.83
2023-05-14T23:46:04.422Z,2.92
2023-05-14T23:48:31.034Z,3.00
2023-05-14T23:50:57.469Z,2.85
2023-05-14T23:53:23.886Z,3.10
2023-05-14T23:55:50.538Z,2.80
2023-05-14T23:58:17.028Z,2.88
